createdAt,value
2018-07-03T00:01:58.116Z,32.10
2018-07-03T00:04:26.569Z,32.00
2018-07-03T00:06:55.375Z,31.90
2018-07-03T00:09:23.845Z,31.80
2018-07-03T00:11:52.345Z,31.70
2018-07-03T00:16:54.382Z,32.30
2018-07-03T00:19:22.858Z,31.90
2018-07-03T00:21:51.297Z,31.90
2018-07-03T00:24:20.381Z,31.80
2018-07-03T00:26:48.920Z,31.70
2018-07-03T00:29:17.460Z,31.50
2018-07-03T00:31:45.971Z,32.00
2018-07-03T00:34:14.441Z,32.40
2018-07-03T00:36:42.964Z,32.20
2018-07-03T00:39:11.404Z,32.20
2018-07-03T00:41:39.884Z,32.20
2018-07-03T00:44:08.353Z,32.50
2018-07-03T00:46:36.776Z,32.10
2018-07-03T00:49:05.700Z,32.10
2018-07-03T00:51:34.181Z,32.10
2018-07-03T00:56:30.844Z,32.50
2018-07-03T00:58:59.412Z,32.00
2018-07-03T01:01:27.905Z,32.20
2018-07-03T01:03:56.351Z,32.00
2018-07-03T01:06:24.817Z,32.00
2018-07-03T01:08:53.325Z,32.20
2018-07-03T01:11:21.781Z,32.20
2018-07-03T01:13:50.402Z,32.30
2018-07-03T01:16:18.897Z,32.30
2018-07-03T01:18:47.458Z,32.00
2018-07-03T01:21:15.971Z,31.90
2018-07-03T01:23:44.530Z,31.90
2018-07-03T01:26:13.097Z,32.00
2018-07-03T01:28:41.724Z,32.00
2018-07-03T01:31:10.185Z,32.30
2018-07-03T01:33:38.697Z,32.60
2018-07-03T01:36:07.342Z,32.30
2018-07-03T01:38:35.886Z,32.00
2018-07-03T01:41:04.393Z,32.50
2018-07-03T01:43:32.821Z,32.70
2018-07-03T01:46:01.276Z,32.30
2018-07-03T01:48:29.721Z,32.70
2018-07-03T01:50:58.233Z,32.60
2018-07-03T01:53:26.757Z,32.70
2018-07-03T01:55:55.268Z,32.30
2018-07-03T01:58:23.722Z,31.90
2018-07-03T02:00:52.177Z,32.20
2018-07-03T02:03:20.651Z,32.30
2018-07-03T02:05:49.092Z,32.60
2018-07-03T02:08:17.557Z,32.40
2018-07-03T02:10:45.968Z,32.20
2018-07-03T02:13:14.456Z,32.20
2018-07-03T02:15:42.950Z,32.40
2018-07-03T02:18:11.472Z,35.00
2018-07-03T02:20:39.895Z,34.90
2018-07-03T02:23:08.365Z,34.50
2018-07-03T02:25:36.841Z,32.60
2018-07-03T02:28:05.341Z,32.40
2018-07-03T02:30:33.826Z,32.00
2018-07-03T02:33:02.462Z,32.30
2018-07-03T02:35:31.528Z,35.30
2018-07-03T02:37:59.973Z,35.10
2018-07-03T02:40:28.470Z,34.70
2018-07-03T02:42:56.893Z,34.40
2018-07-03T02:47:53.534Z,35.20
2018-07-03T02:50:22.010Z,35.30
2018-07-03T02:52:50.464Z,35.30
2018-07-03T02:55:19.013Z,35.10
2018-07-03T02:57:47.580Z,35.10
2018-07-03T03:00:16.083Z,35.30
2018-07-03T03:02:44.563Z,35.50
2018-07-03T03:05:13.048Z,35.50
2018-07-03T03:07:41.493Z,35.20
2018-07-03T03:10:09.962Z,34.90
2018-07-03T03:12:38.437Z,35.00
2018-07-03T03:15:06.973Z,35.30
2018-07-03T03:17:35.460Z,35.60
2018-07-03T03:20:04.246Z,35.80
2018-07-03T03:22:32.742Z,35.60
2018-07-03T03:27:29.340Z,34.90
2018-07-03T03:29:57.797Z,35.40
2018-07-03T03:32:26.221Z,35.40
2018-07-03T03:34:54.666Z,35.60
2018-07-03T03:37:23.575Z,35.40
2018-07-03T03:39:52.158Z,35.70
2018-07-03T03:42:20.742Z,36.10
2018-07-03T03:44:49.161Z,35.80
2018-07-03T03:47:17.605Z,35.70
2018-07-03T03:49:46.161Z,35.70
2018-07-03T03:52:14.645Z,36.30
2018-07-03T03:54:43.136Z,36.40
2018-07-03T03:57:11.602Z,36.20
2018-07-03T03:59:40.170Z,36.50
2018-07-03T04:02:09.519Z,36.10
2018-07-03T04:04:38.017Z,36.60
2018-07-03T04:07:06.728Z,35.80
2018-07-03T04:09:35.213Z,35.90
2018-07-03T04:12:03.773Z,36.30
2018-07-03T04:14:32.321Z,36.60
2018-07-03T04:17:00.845Z,36.10
2018-07-03T04:19:29.356Z,36.20
2018-07-03T04:21:57.810Z,37.00
2018-07-03T04:24:26.305Z,37.10
2018-07-03T04:26:54.862Z,36.70
2018-07-03T04:31:51.530Z,35.80
2018-07-03T04:34:20.180Z,36.00
2018-07-03T04:36:49.087Z,34.10
2018-07-03T04:39:17.552Z,34.40
2018-07-03T04:41:47.237Z,34.20
2018-07-03T04:44:15.745Z,34.40
2018-07-03T04:46:44.257Z,33.60
2018-07-03T04:49:12.756Z,34.40
2018-07-03T04:51:41.197Z,34.10
2018-07-03T04:54:09.672Z,33.70
2018-07-03T04:56:38.114Z,33.60
2018-07-03T04:59:07.084Z,34.10
2018-07-03T05:01:35.529Z,33.20
2018-07-03T05:04:04.157Z,33.70
2018-07-03T05:06:32.619Z,34.30
2018-07-03T05:09:01.221Z,34.60
2018-07-03T05:11:30.106Z,35.10
2018-07-03T05:13:58.584Z,34.60
2018-07-03T05:16:27.117Z,34.80
2018-07-03T05:18:55.616Z,35.20
2018-07-03T05:21:24.041Z,34.50
2018-07-03T05:23:52.490Z,34.70
2018-07-03T05:26:20.927Z,34.70
2018-07-03T05:28:49.356Z,34.60
2018-07-03T05:31:17.815Z,34.20
2018-07-03T05:33:46.284Z,34.50
2018-07-03T05:36:14.827Z,34.70
2018-07-03T05:38:43.325Z,34.20
2018-07-03T05:41:11.825Z,34.60
2018-07-03T05:43:40.281Z,34.40
2018-07-03T05:46:08.821Z,34.60
2018-07-03T05:48:37.260Z,34.70
2018-07-03T05:51:05.804Z,34.20
2018-07-03T05:53:34.233Z,34.40
2018-07-03T05:56:02.726Z,34.50
2018-07-03T05:58:31.204Z,35.00
2018-07-03T06:00:59.762Z,34.40
2018-07-03T06:03:28.165Z,34.30
2018-07-03T06:05:56.620Z,34.90
2018-07-03T06:08:25.146Z,35.40
2018-07-03T06:10:53.626Z,35.00
2018-07-03T06:13:22.228Z,35.40
2018-07-03T06:15:50.719Z,35.30
2018-07-03T06:18:19.593Z,35.90
2018-07-03T06:20:48.446Z,35.50
2018-07-03T06:23:16.937Z,35.90
2018-07-03T06:25:45.416Z,35.20
2018-07-03T06:28:13.877Z,35.80
2018-07-03T06:30:42.453Z,36.50
2018-07-03T06:35:39.035Z,36.30
2018-07-03T06:38:07.497Z,37.20
2018-07-03T06:40:36.018Z,36.50
2018-07-03T06:43:04.565Z,36.00
2018-07-03T06:45:33.045Z,36.10
2018-07-03T06:48:01.536Z,37.50
2018-07-03T06:50:30.058Z,37.30
2018-07-03T06:52:58.567Z,39.10
2018-07-03T06:55:27.103Z,37.40
2018-07-03T06:57:55.824Z,37.90
2018-07-03T07:00:24.500Z,38.20
2018-07-03T07:02:53.000Z,37.60
2018-07-03T07:05:21.481Z,38.10
2018-07-03T07:07:50.016Z,37.50
2018-07-03T07:10:19.040Z,36.10
2018-07-03T07:12:47.542Z,37.10
2018-07-03T07:15:16.429Z,36.50
2018-07-03T07:17:44.957Z,37.60
2018-07-03T07:20:13.416Z,38.00
2018-07-03T07:22:42.760Z,36.60
2018-07-03T07:25:11.206Z,37.20
2018-07-03T07:27:39.705Z,37.40
2018-07-03T07:30:08.182Z,36.70
2018-07-03T07:35:04.985Z,37.60
2018-07-03T07:37:33.472Z,37.00
2018-07-03T07:40:01.948Z,37.00
2018-07-03T07:42:30.455Z,38.00
2018-07-03T07:44:58.884Z,37.00
2018-07-03T07:47:27.398Z,38.10
2018-07-03T07:49:55.900Z,36.90
2018-07-03T07:52:24.668Z,37.10
2018-07-03T07:54:53.168Z,36.80
2018-07-03T07:57:21.629Z,37.70
2018-07-03T07:59:50.113Z,36.90
2018-07-03T08:02:19.807Z,36.70
2018-07-03T08:04:48.275Z,36.00
2018-07-03T08:07:16.741Z,36.90
2018-07-03T08:09:45.252Z,37.80
2018-07-03T08:12:14.528Z,35.40
2018-07-03T08:14:43.098Z,34.90
2018-07-03T08:19:40.022Z,36.60
2018-07-03T08:22:08.544Z,35.30
2018-07-03T08:24:37.043Z,36.40
2018-07-03T08:29:33.717Z,34.10
2018-07-03T08:32:02.230Z,34.10
2018-07-03T08:34:30.686Z,34.00
2018-07-03T08:36:59.178Z,34.00
2018-07-03T08:39:27.605Z,33.70
2018-07-03T08:41:56.148Z,34.20
2018-07-03T08:44:24.585Z,33.30
2018-07-03T08:46:53.054Z,33.80
2018-07-03T08:49:21.529Z,32.30
2018-07-03T08:51:50.087Z,32.90
2018-07-03T08:54:18.574Z,33.30
2018-07-03T08:56:47.109Z,34.10
2018-07-03T08:59:30.693Z,34.10
2018-07-03T09:01:59.303Z,34.70
2018-07-03T09:04:28.092Z,34.40
2018-07-03T09:06:56.856Z,35.00
2018-07-03T09:09:25.340Z,34.10
2018-07-03T09:11:53.807Z,33.90
2018-07-03T09:14:22.221Z,34.70
2018-07-03T09:16:50.682Z,34.50
2018-07-03T09:19:19.082Z,34.40
2018-07-03T09:21:47.542Z,34.30
2018-07-03T09:24:16.012Z,34.10
2018-07-03T09:26:45.109Z,34.00
2018-07-03T09:29:13.616Z,34.50
2018-07-03T09:31:42.109Z,34.00
2018-07-03T09:34:10.565Z,33.70
2018-07-03T09:36:39.036Z,34.30
2018-07-03T09:39:09.657Z,35.40
2018-07-03T09:41:39.096Z,34.30
2018-07-03T09:46:36.181Z,35.20
2018-07-03T09:49:04.984Z,34.50
2018-07-03T09:51:33.481Z,35.80
2018-07-03T09:54:02.560Z,36.00
2018-07-03T09:56:32.224Z,35.10
2018-07-03T09:59:00.703Z,36.30
2018-07-03T10:01:29.355Z,37.00
2018-07-03T10:03:57.805Z,35.50
2018-07-03T10:06:26.280Z,36.00
2018-07-03T10:08:54.716Z,35.80
2018-07-03T10:11:23.208Z,35.50
2018-07-03T10:13:51.741Z,35.30
2018-07-03T10:18:48.406Z,35.90
2018-07-03T10:21:16.959Z,36.40
2018-07-03T10:23:45.471Z,35.10
2018-07-03T10:28:42.122Z,36.00
2018-07-03T10:38:35.761Z,35.10
2018-07-03T10:41:04.247Z,36.10
2018-07-03T10:43:32.726Z,38.20
2018-07-03T10:46:01.291Z,38.00
2018-07-03T10:48:29.768Z,37.20
2018-07-03T10:53:26.389Z,36.00
2018-07-03T10:55:54.864Z,35.20
2018-07-03T10:58:23.607Z,35.60
2018-07-03T11:00:52.825Z,35.80
2018-07-03T11:03:21.709Z,36.10
2018-07-03T11:05:50.155Z,37.20
2018-07-03T11:08:18.610Z,35.90
2018-07-03T11:10:47.212Z,35.60
2018-07-03T11:13:15.682Z,35.50
2018-07-03T11:15:44.116Z,35.30
2018-07-03T11:18:12.616Z,35.70
2018-07-03T11:20:41.085Z,35.50
2018-07-03T11:23:09.576Z,37.00
2018-07-03T11:25:38.095Z,36.90
2018-07-03T11:28:06.633Z,37.60
2018-07-03T11:30:35.129Z,37.30
2018-07-03T11:33:03.830Z,37.20
2018-07-03T11:35:32.489Z,36.80
2018-07-03T11:38:01.561Z,36.00
2018-07-03T11:42:58.228Z,36.50
2018-07-03T11:45:26.713Z,35.20
2018-07-03T11:47:55.216Z,35.80
2018-07-03T11:50:23.694Z,34.60
2018-07-03T11:52:52.122Z,34.80
2018-07-03T11:55:20.785Z,34.30
2018-07-03T11:57:49.508Z,33.60
2018-07-03T12:00:18.662Z,34.70
2018-07-03T12:02:47.122Z,34.00
2018-07-03T12:05:15.670Z,34.70
2018-07-03T12:07:44.821Z,34.80
2018-07-03T12:10:13.985Z,34.40
2018-07-03T12:12:42.477Z,34.80
2018-07-03T12:15:10.982Z,34.40
2018-07-03T12:17:39.445Z,34.50
2018-07-03T12:20:08.186Z,34.50
2018-07-03T12:25:05.466Z,34.90
2018-07-03T12:27:34.075Z,34.30
2018-07-03T12:30:02.645Z,34.20
2018-07-03T12:32:31.183Z,34.60
2018-07-03T12:34:59.692Z,34.50
2018-07-03T12:37:28.125Z,35.30
2018-07-03T12:39:56.585Z,34.40
2018-07-03T12:42:26.137Z,35.00
2018-07-03T12:44:54.754Z,34.80
2018-07-03T12:47:23.224Z,35.40
2018-07-03T12:52:20.855Z,35.60
2018-07-03T12:54:49.373Z,34.90
2018-07-03T12:57:17.816Z,35.80
2018-07-03T12:59:46.752Z,35.90
2018-07-03T13:02:15.446Z,36.10
2018-07-03T13:04:43.961Z,36.40
2018-07-03T13:09:42.412Z,36.90
2018-07-03T13:12:12.299Z,36.30
2018-07-03T13:14:40.881Z,36.40
2018-07-03T13:17:09.369Z,36.20
2018-07-03T13:19:37.814Z,36.20
2018-07-03T13:24:35.447Z,36.80
2018-07-03T13:27:03.973Z,37.00
2018-07-03T13:29:32.471Z,36.40
2018-07-03T13:32:02.539Z,37.00
2018-07-03T13:34:31.088Z,35.80
2018-07-03T13:36:59.572Z,37.40
2018-07-03T13:39:28.042Z,36.30
2018-07-03T13:41:56.836Z,37.80
2018-07-03T13:44:25.323Z,37.70
2018-07-03T13:46:53.793Z,38.30
2018-07-03T13:49:22.266Z,37.80
2018-07-03T13:54:18.896Z,39.00
2018-07-03T13:56:47.323Z,37.50
2018-07-03T13:59:15.863Z,38.00
2018-07-03T14:01:44.384Z,37.40
2018-07-03T14:04:12.820Z,38.10
2018-07-03T14:06:41.292Z,38.20
2018-07-03T14:09:10.082Z,38.10
2018-07-03T14:11:38.638Z,37.80
2018-07-03T14:14:07.636Z,37.20
2018-07-03T14:16:36.152Z,37.50
2018-07-03T14:19:04.666Z,38.30
2018-07-03T14:21:33.198Z,37.40
2018-07-03T14:24:01.616Z,37.10
2018-07-03T14:26:30.377Z,37.50
2018-07-03T14:28:58.852Z,38.00
2018-07-03T14:31:27.453Z,38.00
2018-07-03T14:36:24.200Z,39.50
2018-07-03T14:38:52.627Z,38.10
2018-07-03T14:41:21.084Z,38.40
2018-07-03T14:43:49.492Z,38.50
2018-07-03T14:46:17.949Z,38.60
2018-07-03T14:48:46.473Z,39.40
2018-07-03T14:51:15.714Z,39.20
2018-07-03T14:53:44.174Z,38.80
2018-07-03T14:56:13.589Z,39.00
2018-07-03T14:58:42.093Z,38.60
2018-07-03T15:01:10.683Z,39.70
2018-07-03T15:03:39.197Z,39.10
2018-07-03T15:06:07.701Z,39.10
2018-07-03T15:08:36.201Z,38.70
2018-07-03T15:11:04.733Z,38.80
2018-07-03T15:13:33.214Z,39.20
2018-07-03T15:16:01.766Z,38.60
2018-07-03T15:18:35.574Z,38.60
2018-07-03T15:21:04.176Z,39.30
2018-07-03T15:26:00.938Z,39.50
2018-07-03T15:28:29.441Z,38.20
2018-07-03T15:30:57.884Z,38.40
2018-07-03T15:33:26.317Z,38.70
2018-07-03T15:35:54.843Z,38.70
2018-07-03T15:38:23.243Z,38.80
2018-07-03T15:40:51.837Z,38.10
2018-07-03T15:43:20.289Z,38.20
2018-07-03T15:45:48.803Z,38.70
2018-07-03T15:48:17.344Z,38.10
2018-07-03T15:50:45.845Z,38.50
2018-07-03T15:53:14.343Z,38.80
2018-07-03T15:55:43.687Z,38.90
2018-07-03T15:58:12.492Z,38.70
2018-07-03T16:00:41.099Z,38.50
2018-07-03T16:05:24.034Z,39.00
2018-07-03T16:08:02.626Z,38.70
2018-07-03T16:10:31.144Z,38.50
2018-07-03T16:12:59.576Z,38.60
2018-07-03T16:15:28.108Z,38.70
2018-07-03T16:17:56.713Z,38.90
2018-07-03T16:20:31.362Z,39.10
2018-07-03T16:23:00.568Z,38.70
2018-07-03T16:25:29.961Z,38.00
2018-07-03T16:27:58.461Z,38.10
2018-07-03T16:30:26.955Z,38.00
2018-07-03T16:32:55.453Z,37.90
2018-07-03T16:37:52.185Z,38.60
2018-07-03T16:40:20.708Z,38.30
2018-07-03T16:42:49.370Z,37.60
2018-07-03T16:45:17.851Z,38.10
2018-07-03T16:47:46.297Z,37.80
2018-07-03T16:50:14.820Z,37.60
2018-07-03T16:52:43.333Z,38.10
2018-07-03T16:55:12.066Z,37.50
2018-07-03T16:57:40.634Z,38.00
2018-07-03T17:00:09.459Z,41.80
2018-07-03T17:02:38.053Z,38.90
2018-07-03T17:05:06.564Z,41.90
2018-07-03T17:07:35.148Z,42.90
2018-07-03T17:10:03.713Z,37.50
2018-07-03T17:12:32.258Z,40.50
2018-07-03T17:15:00.880Z,41.90
2018-07-03T17:17:29.397Z,43.40
2018-07-03T17:19:58.955Z,44.00
2018-07-03T17:22:27.490Z,43.90
2018-07-03T17:24:56.270Z,44.40
2018-07-03T17:27:24.730Z,44.40
2018-07-03T17:29:53.392Z,44.50
2018-07-03T17:32:21.982Z,44.20
2018-07-03T17:34:51.031Z,44.40
2018-07-03T17:37:19.490Z,44.60
2018-07-03T17:39:59.358Z,44.50
2018-07-03T17:42:38.897Z,44.80
2018-07-03T17:45:45.315Z,44.60
2018-07-03T17:48:15.152Z,44.50
2018-07-03T17:50:44.041Z,44.40
2018-07-03T17:53:13.181Z,44.70
2018-07-03T17:55:41.823Z,44.60
2018-07-03T17:58:10.452Z,44.70
2018-07-03T18:00:39.005Z,44.30
2018-07-03T18:03:07.595Z,44.50
2018-07-03T18:05:36.132Z,44.50
2018-07-03T18:08:05.060Z,44.30
2018-07-03T18:10:33.581Z,44.20
2018-07-03T18:13:02.085Z,44.20
2018-07-03T18:15:30.634Z,44.30
2018-07-03T18:17:59.830Z,44.40
2018-07-03T18:20:28.348Z,44.10
2018-07-03T18:22:57.580Z,44.10
2018-07-03T18:30:22.609Z,44.20
2018-07-03T18:32:51.688Z,44.10
2018-07-03T18:35:20.352Z,44.20
2018-07-03T18:37:49.085Z,44.30
2018-07-03T18:40:17.650Z,44.10
2018-07-03T18:42:46.226Z,44.80
2018-07-03T18:45:14.769Z,44.40
2018-07-03T18:47:43.421Z,44.40
2018-07-03T18:50:11.969Z,44.80
2018-07-03T18:52:40.631Z,44.40
2018-07-03T18:55:09.433Z,44.50
2018-07-03T18:57:38.028Z,44.70
2018-07-03T19:00:06.922Z,44.50
2018-07-03T19:02:35.618Z,44.60
2018-07-03T19:05:04.402Z,44.80
2018-07-03T19:07:32.917Z,44.70
2018-07-03T19:10:01.422Z,44.90
2018-07-03T19:12:29.977Z,45.10
2018-07-03T19:14:58.521Z,45.10
2018-07-03T19:17:27.064Z,45.20
2018-07-03T19:22:24.512Z,46.00
2018-07-03T19:24:53.507Z,45.70
2018-07-03T19:27:22.121Z,45.70
2018-07-03T19:32:18.920Z,45.70
2018-07-03T19:34:47.721Z,45.90
2018-07-03T19:37:16.587Z,45.80
2018-07-03T19:39:45.125Z,46.10
2018-07-03T19:42:13.663Z,46.40
2018-07-03T19:44:42.157Z,46.70
2018-07-03T19:47:10.766Z,47.00
2018-07-03T19:49:39.269Z,47.30
2018-07-03T19:52:07.795Z,47.00
2018-07-03T19:54:36.773Z,47.30
2018-07-03T19:57:05.498Z,47.50
2018-07-03T19:59:34.004Z,47.30
2018-07-03T20:02:02.556Z,47.10
2018-07-03T20:04:31.056Z,47.30
2018-07-03T20:06:59.621Z,47.40
2018-07-03T20:09:28.500Z,47.20
2018-07-03T20:11:57.126Z,47.00
2018-07-03T20:14:25.594Z,47.00
2018-07-03T20:16:54.106Z,47.10
2018-07-03T20:19:22.611Z,47.10
2018-07-03T20:21:51.162Z,47.20
2018-07-03T20:24:19.652Z,47.20
2018-07-03T20:29:16.568Z,47.40
2018-07-03T20:31:45.294Z,47.40
2018-07-03T20:34:13.857Z,47.60
2018-07-03T20:36:42.433Z,47.60
2018-07-03T20:39:11.633Z,47.60
2018-07-03T20:41:40.114Z,47.40
2018-07-03T20:44:08.693Z,47.40
2018-07-03T20:46:37.284Z,47.20
2018-07-03T20:49:05.844Z,47.10
2018-07-03T20:51:34.350Z,47.40
2018-07-03T20:54:03.337Z,47.70
2018-07-03T20:56:31.897Z,47.50
2018-07-03T20:59:00.422Z,47.60
2018-07-03T21:01:28.893Z,47.70
2018-07-03T21:03:58.159Z,47.80
2018-07-03T21:06:26.624Z,47.80
2018-07-03T21:08:55.125Z,47.80
2018-07-03T21:11:23.640Z,47.50
2018-07-03T21:13:52.454Z,47.60
2018-07-03T21:16:20.949Z,47.40
2018-07-03T21:18:49.517Z,47.70
2018-07-03T21:21:18.049Z,47.60
2018-07-03T21:23:46.738Z,47.90
2018-07-03T21:26:15.237Z,47.90
2018-07-03T21:28:43.745Z,48.10
2018-07-03T21:31:12.329Z,48.10
2018-07-03T21:33:40.763Z,48.30
2018-07-03T21:36:09.322Z,48.20
2018-07-03T21:38:38.586Z,48.10
2018-07-03T21:41:07.681Z,48.10
2018-07-03T21:43:36.140Z,48.50
2018-07-03T21:46:04.661Z,48.40
2018-07-03T21:48:33.106Z,48.30
2018-07-03T21:51:01.626Z,48.20
2018-07-03T21:53:30.183Z,47.90
2018-07-03T21:55:58.657Z,48.10
2018-07-03T21:58:27.197Z,48.40
2018-07-03T22:00:55.735Z,48.10
2018-07-03T22:03:24.225Z,48.20
2018-07-03T22:05:52.686Z,48.10
2018-07-03T22:08:21.151Z,48.30
2018-07-03T22:10:49.620Z,48.40
2018-07-03T22:13:18.102Z,48.20
2018-07-03T22:15:46.574Z,48.10
2018-07-03T22:18:15.038Z,48.30
2018-07-03T22:20:43.493Z,48.00
2018-07-03T22:23:12.082Z,48.40
2018-07-03T22:25:40.530Z,48.50
2018-07-03T22:28:09.046Z,48.30
2018-07-03T22:30:37.577Z,48.40
2018-07-03T22:33:07.097Z,48.60
2018-07-03T22:35:36.297Z,49.00
2018-07-03T22:38:05.023Z,49.00
2018-07-03T22:40:33.533Z,48.70
2018-07-03T22:43:02.043Z,48.00
2018-07-03T22:45:30.543Z,48.30
2018-07-03T22:47:58.980Z,48.00
2018-07-03T22:50:27.561Z,47.60
2018-07-03T22:52:56.066Z,48.40
2018-07-03T22:55:24.545Z,48.50
2018-07-03T22:57:53.074Z,48.40
2018-07-03T23:00:21.591Z,47.90
2018-07-03T23:02:50.732Z,48.30
2018-07-03T23:05:19.368Z,48.30
2018-07-03T23:10:16.006Z,48.50
2018-07-03T23:12:44.480Z,48.80
2018-07-03T23:15:12.917Z,49.20
2018-07-03T23:17:41.421Z,49.20
2018-07-03T23:20:09.953Z,49.20
2018-07-03T23:22:38.464Z,49.60
2018-07-03T23:25:06.945Z,49.70
2018-07-03T23:27:35.429Z,49.80
2018-07-03T23:30:04.043Z,49.00
2018-07-03T23:32:32.557Z,49.60
2018-07-03T23:35:01.041Z,49.70
2018-07-03T23:39:57.649Z,49.40
2018-07-03T23:42:26.097Z,50.10
2018-07-03T23:44:54.552Z,50.40
2018-07-03T23:50:08.007Z,50.30
2018-07-03T23:52:47.776Z,50.00
2018-07-03T23:55:27.521Z,50.00
2018-07-03T23:58:07.274Z,49.30
